sensor_id;sensor_type;location;lat;lon;timestamp;pressure;altitude;pressure_sealevel;temperature;humidity
59240;BME280;45010;53.640;10.578;2023-08-06T00:00:25;100186.84;;;26.05;42.93
59240;BME280;45010;53.640;10.578;2023-08-06T00:03:25;100201.31;;;26.14;42.92
59240;BME280;45010;53.640;10.578;2023-08-06T00:06:25;100202.38;;;26.13;43.15
59240;BME280;45010;53.640;10.578;2023-08-06T00:09:25;100200.78;;;26.12;42.94
59240;BME280;45010;53.640;10.578;2023-08-06T00:12:26;100196.50;;;26.11;43.08
59240;BME280;45010;53.640;10.578;2023-08-06T00:15:26;100197.53;;;26.10;43.07
59240;BME280;45010;53.640;10.578;2023-08-06T00:18:26;100194.31;;;26.08;43.42
59240;BME280;45010;53.640;10.578;2023-08-06T00:21:27;100200.75;;;26.07;42.84
59240;BME280;45010;53.640;10.578;2023-08-06T00:24:27;100189.91;;;25.91;43.25
59240;BME280;45010;53.640;10.578;2023-08-06T00:27:28;100216.22;;;26.05;43.33
59240;BME280;45010;53.640;10.578;2023-08-06T00:30:28;100216.22;;;26.05;43.31
59240;BME280;45010;53.640;10.578;2023-08-06T00:33:28;100205.53;;;26.05;43.39
59240;BME280;45010;53.640;10.578;2023-08-06T00:36:29;100198.84;;;26.02;43.29
59240;BME280;45010;53.640;10.578;2023-08-06T00:39:29;100190.00;;;26.02;43.09
59240;BME280;45010;53.640;10.578;2023-08-06T00:42:29;100184.66;;;26.02;43.28
59240;BME280;45010;53.640;10.578;2023-08-06T00:45:30;100171.72;;;25.88;43.26
59240;BME280;45010;53.640;10.578;2023-08-06T00:48:33;100173.69;;;25.98;43.27
59240;BME280;45010;53.640;10.578;2023-08-06T00:51:34;100167.50;;;25.98;43.31
59240;BME280;45010;53.640;10.578;2023-08-06T00:54:35;100158.66;;;25.92;43.41
59240;BME280;45010;53.640;10.578;2023-08-06T00:57:36;100167.50;;;25.98;43.24
59240;BME280;45010;53.640;10.578;2023-08-06T01:00:36;100161.63;;;25.96;43.32
59240;BME280;45010;53.640;10.578;2023-08-06T01:03:38;100152.00;;;25.95;43.13
59240;BME280;45010;53.640;10.578;2023-08-06T01:16:06;100124.09;;;25.80;43.16
59240;BME280;45010;53.640;10.578;2023-08-06T01:19:17;100125.19;;;25.84;43.34
59240;BME280;45010;53.640;10.578;2023-08-06T01:22:18;100133.25;;;25.89;43.47
59240;BME280;45010;53.640;10.578;2023-08-06T01:25:18;100122.56;;;25.89;43.17
59240;BME280;45010;53.640;10.578;2023-08-06T01:31:41;100113.19;;;25.87;43.68
59240;BME280;45010;53.640;10.578;2023-08-06T01:34:44;100110.53;;;25.87;43.43
59240;BME280;45010;53.640;10.578;2023-08-06T01:37:46;100115.06;;;25.86;43.37
59240;BME280;45010;53.640;10.578;2023-08-06T01:40:46;100110.78;;;25.85;43.65
59240;BME280;45010;53.640;10.578;2023-08-06T01:43:46;100101.97;;;25.85;43.44
59240;BME280;45010;53.640;10.578;2023-08-06T01:46:47;100100.09;;;25.85;43.73
59240;BME280;45010;53.640;10.578;2023-08-06T01:49:47;100100.38;;;25.84;43.32
59240;BME280;45010;53.640;10.578;2023-08-06T01:52:48;100093.13;;;25.84;43.78
59240;BME280;45010;53.640;10.578;2023-08-06T01:55:49;100083.47;;;25.78;43.48
59240;BME280;45010;53.640;10.578;2023-08-06T01:58:49;100096.88;;;25.83;43.51
59240;BME280;45010;53.640;10.578;2023-08-06T02:01:50;100089.94;;;25.82;43.52
59240;BME280;45010;53.640;10.578;2023-08-06T02:04:50;100084.59;;;25.82;43.82
59240;BME280;45010;53.640;10.578;2023-08-06T02:07:50;100080.31;;;25.81;43.68
59240;BME280;45010;53.640;10.578;2023-08-06T02:10:50;100076.81;;;25.81;43.73
59240;BME280;45010;53.640;10.578;2023-08-06T02:13:51;100064.53;;;25.79;43.75
59240;BME280;45010;53.640;10.578;2023-08-06T02:16:51;100069.06;;;25.79;43.75
59240;BME280;45010;53.640;10.578;2023-08-06T02:19:52;100063.72;;;25.79;43.69
59240;BME280;45010;53.640;10.578;2023-08-06T02:22:52;100062.09;;;25.78;43.50
59240;BME280;45010;53.640;10.578;2023-08-06T02:25:59;100049.81;;;25.77;43.43
59240;BME280;45010;53.640;10.578;2023-08-06T02:29:00;100057.28;;;25.75;43.78
59240;BME280;45010;53.640;10.578;2023-08-06T02:32:00;100059.69;;;25.76;43.67
59240;BME280;45010;53.640;10.578;2023-08-06T02:35:02;100054.34;;;25.76;43.81
59240;BME280;45010;53.640;10.578;2023-08-06T02:38:02;100046.63;;;25.75;43.71
59240;BME280;45010;53.640;10.578;2023-08-06T02:41:03;100031.59;;;25.69;43.79
59240;BME280;45010;53.640;10.578;2023-08-06T02:44:04;100017.19;;;25.70;43.41
59240;BME280;45010;53.640;10.578;2023-08-06T02:47:04;100025.25;;;25.75;43.72
59240;BME280;45010;53.640;10.578;2023-08-06T02:50:05;100026.28;;;25.74;43.72
59240;BME280;45010;53.640;10.578;2023-08-06T02:53:06;100024.44;;;25.74;43.69
59240;BME280;45010;53.640;10.578;2023-08-06T02:56:07;100016.66;;;25.73;43.66
59240;BME280;45010;53.640;10.578;2023-08-06T02:59:07;100018.28;;;25.74;43.71
59240;BME280;45010;53.640;10.578;2023-08-06T03:02:07;100015.06;;;25.72;43.66
59240;BME280;45010;53.640;10.578;2023-08-06T03:05:08;100026.56;;;25.72;43.76
59240;BME280;45010;53.640;10.578;2023-08-06T03:08:08;100020.66;;;25.70;43.93
59240;BME280;45010;53.640;10.578;2023-08-06T03:11:08;100025.75;;;25.72;43.80
59240;BME280;45010;53.640;10.578;2023-08-06T03:14:09;100018.78;;;25.71;43.89
59240;BME280;45010;53.640;10.578;2023-08-06T03:17:09;100012.91;;;25.69;43.76
59240;BME280;45010;53.640;10.578;2023-08-06T03:20:10;99982.84;;;25.51;44.18
59240;BME280;45010;53.640;10.578;2023-08-06T03:23:10;100010.25;;;25.69;43.74
59240;BME280;45010;53.640;10.578;2023-08-06T03:26:11;99999.56;;;25.69;43.85
59240;BME280;45010;53.640;10.578;2023-08-06T03:29:11;99999.56;;;25.69;43.82
59240;BME280;45010;53.640;10.578;2023-08-06T03:32:11;99986.47;;;25.67;44.25
59240;BME280;45010;53.640;10.578;2023-08-06T03:35:11;99991.81;;;25.67;43.80
59240;BME280;45010;53.640;10.578;2023-08-06T03:38:12;99989.13;;;25.67;43.73
59240;BME280;45010;53.640;10.578;2023-08-06T03:41:12;99990.97;;;25.67;43.73
59240;BME280;45010;53.640;10.578;2023-08-06T03:44:12;99977.63;;;25.67;44.02
59240;BME280;45010;53.640;10.578;2023-08-06T03:47:13;99982.44;;;25.64;44.03
59240;BME280;45010;53.640;10.578;2023-08-06T03:50:13;99983.22;;;25.65;44.05
59240;BME280;45010;53.640;10.578;2023-08-06T03:53:14;99982.44;;;25.64;44.24
59240;BME280;45010;53.640;10.578;2023-08-06T03:56:14;99985.09;;;25.64;44.02
59240;BME280;45010;53.640;10.578;2023-08-06T03:59:14;99987.78;;;25.64;43.78
59240;BME280;45010;53.640;10.578;2023-08-06T04:02:15;99980.84;;;25.63;44.09
59240;BME280;45010;53.640;10.578;2023-08-06T04:05:15;99978.16;;;25.63;44.10
59240;BME280;45010;53.640;10.578;2023-08-06T04:08:17;99980.84;;;25.63;44.47
59240;BME280;45010;53.640;10.578;2023-08-06T04:11:17;99980.84;;;25.63;43.96
59240;BME280;45010;53.640;10.578;2023-08-06T04:14:17;99967.94;;;25.55;43.97
59240;BME280;45010;53.640;10.578;2023-08-06T04:17:18;99947.28;;;25.45;44.30
59240;BME280;45010;53.640;10.578;2023-08-06T04:20:20;99966.88;;;25.56;44.30
59240;BME280;45010;53.640;10.578;2023-08-06T04:23:20;99973.88;;;25.62;44.26
59240;BME280;45010;53.640;10.578;2023-08-06T04:26:21;99977.59;;;25.61;44.12
59240;BME280;45010;53.640;10.578;2023-08-06T04:29:21;99977.59;;;25.61;43.88
59240;BME280;45010;53.640;10.578;2023-08-06T04:32:21;99974.38;;;25.59;44.27
59240;BME280;45010;53.640;10.578;2023-08-06T04:35:22;99966.34;;;25.54;44.25
59240;BME280;45010;53.640;10.578;2023-08-06T04:38:25;99979.72;;;25.59;44.11
59240;BME280;45010;53.640;10.578;2023-08-06T04:41:26;99978.13;;;25.58;44.27
59240;BME280;45010;53.640;10.578;2023-08-06T04:44:26;99971.19;;;25.57;44.03
59240;BME280;45010;53.640;10.578;2023-08-06T04:47:27;99978.13;;;25.58;44.12
59240;BME280;45010;53.640;10.578;2023-08-06T04:50:27;99983.47;;;25.58;44.14
59240;BME280;45010;53.640;10.578;2023-08-06T04:53:27;99978.13;;;25.58;44.40
59240;BME280;45010;53.640;10.578;2023-08-06T04:56:28;99974.09;;;25.56;44.25
59240;BME280;45010;53.640;10.578;2023-08-06T04:59:28;99977.31;;;25.58;44.53
59240;BME280;45010;53.640;10.578;2023-08-06T05:02:28;99967.94;;;25.55;44.20
59240;BME280;45010;53.640;10.578;2023-08-06T05:05:29;99945.38;;;25.41;44.19
59240;BME280;45010;53.640;10.578;2023-08-06T05:08:29;99971.19;;;25.57;44.37
59240;BME280;45010;53.640;10.578;2023-08-06T05:11:30;99967.94;;;25.55;44.29
59240;BME280;45010;53.640;10.578;2023-08-06T05:14:30;99967.94;;;25.55;44.34
59240;BME280;45010;53.640;10.578;2023-08-06T05:17:30;99962.59;;;25.55;44.44
59240;BME280;45010;53.640;10.578;2023-08-06T05:20:31;99961.00;;;25.54;44.08
59240;BME280;45010;53.640;10.578;2023-08-06T05:23:31;99955.59;;;25.49;44.45
59240;BME280;45010;53.640;10.578;2023-08-06T05:26:31;99961.00;;;25.54;44.23
59240;BME280;45010;53.640;10.578;2023-08-06T05:29:32;99958.25;;;25.49;44.47
59240;BME280;45010;53.640;10.578;2023-08-06T05:32:32;99963.09;;;25.52;44.64
59240;BME280;45010;53.640;10.578;2023-08-06T05:35:33;99964.72;;;25.53;44.37
59240;BME280;45010;53.640;10.578;2023-08-06T05:38:33;99970.88;;;25.54;44.35
59240;BME280;45010;53.640;10.578;2023-08-06T05:41:34;99966.34;;;25.54;44.26
59240;BME280;45010;53.640;10.578;2023-08-06T05:44:34;99964.72;;;25.53;44.45
59240;BME280;45010;53.640;10.578;2023-08-06T05:47:34;99958.53;;;25.52;44.25
59240;BME280;45010;53.640;10.578;2023-08-06T05:50:35;99964.72;;;25.53;44.63
59240;BME280;45010;53.640;10.578;2023-08-06T05:53:35;99956.94;;;25.51;44.57
59240;BME280;45010;53.640;10.578;2023-08-06T05:56:35;99958.53;;;25.52;44.32
59240;BME280;45010;53.640;10.578;2023-08-06T05:59:36;99952.41;;;25.52;44.71
59240;BME280;45010;53.640;10.578;2023-08-06T06:02:36;99950.53;;;25.52;44.58
59240;BME280;45010;53.640;10.578;2023-08-06T06:05:39;99946.25;;;25.51;44.40
59240;BME280;45010;53.640;10.578;2023-08-06T06:08:40;99947.06;;;25.52;44.47
59240;BME280;45010;53.640;10.578;2023-08-06T06:11:40;99961.50;;;25.51;44.50
59240;BME280;45010;53.640;10.578;2023-08-06T06:14:40;99956.16;;;25.51;44.71
59240;BME280;45010;53.640;10.578;2023-08-06T06:17:41;99943.25;;;25.43;44.67
59240;BME280;45010;53.640;10.578;2023-08-06T06:20:41;99966.00;;;25.50;44.47
59240;BME280;45010;53.640;10.578;2023-08-06T06:23:41;99959.06;;;25.49;44.81
59240;BME280;45010;53.640;10.578;2023-08-06T06:26:42;99946.75;;;25.43;44.73
59240;BME280;45010;53.640;10.578;2023-08-06T06:29:42;99954.53;;;25.50;44.88
59240;BME280;45010;53.640;10.578;2023-08-06T06:32:42;99956.41;;;25.49;44.34
59240;BME280;45010;53.640;10.578;2023-08-06T06:35:43;99947.56;;;25.49;44.69
59240;BME280;45010;53.640;10.578;2023-08-06T06:38:43;99942.22;;;25.49;44.77
59240;BME280;45010;53.640;10.578;2023-08-06T06:41:43;99947.56;;;25.49;44.95
59240;BME280;45010;53.640;10.578;2023-08-06T06:44:44;99942.22;;;25.49;44.72
59240;BME280;45010;53.640;10.578;2023-08-06T06:47:44;99942.22;;;25.49;44.70
59240;BME280;45010;53.640;10.578;2023-08-06T06:50:47;99948.38;;;25.49;44.60
59240;BME280;45010;53.640;10.578;2023-08-06T06:53:48;99948.63;;;25.48;44.62
59240;BME280;45010;53.640;10.578;2023-08-06T06:56:48;99940.63;;;25.48;44.77
59240;BME280;45010;53.640;10.578;2023-08-06T06:59:48;99935.28;;;25.48;44.86
59240;BME280;45010;53.640;10.578;2023-08-06T07:02:49;99948.63;;;25.48;44.34
59240;BME280;45010;53.640;10.578;2023-08-06T07:05:49;99917.00;;;25.29;44.67
59240;BME280;45010;53.640;10.578;2023-08-06T07:08:50;99945.97;;;25.48;44.97
59240;BME280;45010;53.640;10.578;2023-08-06T07:11:50;99945.19;;;25.47;44.85
59240;BME280;45010;53.640;10.578;2023-08-06T07:14:50;99945.97;;;25.48;44.73
59240;BME280;45010;53.640;10.578;2023-08-06T07:17:51;99931.78;;;25.42;45.04
59240;BME280;45010;53.640;10.578;2023-08-06T07:20:52;99943.31;;;25.48;44.98
59240;BME280;45010;53.640;10.578;2023-08-06T07:23:53;99944.38;;;25.47;45.38
59240;BME280;45010;53.640;10.578;2023-08-06T07:26:53;99948.09;;;25.46;45.55
59240;BME280;45010;53.640;10.578;2023-08-06T07:29:53;99946.22;;;25.46;45.85
59240;BME280;45010;53.640;10.578;2023-08-06T07:32:54;99955.03;;;25.47;45.94
59240;BME280;45010;53.640;10.578;2023-08-06T07:35:54;99942.22;;;25.49;45.94
59240;BME280;45010;53.640;10.578;2023-08-06T07:38:54;99950.25;;;25.49;46.20
59240;BME280;45010;53.640;10.578;2023-08-06T07:41:57;99952.41;;;25.52;46.68
59240;BME280;45010;53.640;10.578;2023-08-06T07:44:58;99923.75;;;25.37;46.38
59240;BME280;45010;53.640;10.578;2023-08-06T07:47:59;99955.16;;;25.57;46.31
59240;BME280;45010;53.640;10.578;2023-08-06T07:50:59;99942.34;;;25.59;46.39
59240;BME280;45010;53.640;10.578;2023-08-06T07:53:59;99944.50;;;25.62;46.53
59240;BME280;45010;53.640;10.578;2023-08-06T07:57:00;99934.88;;;25.61;46.38
59240;BME280;45010;53.640;10.578;2023-08-06T08:00:01;99936.50;;;25.68;46.36
59240;BME280;45010;53.640;10.578;2023-08-06T08:03:01;99933.34;;;25.71;46.49
59240;BME280;45010;53.640;10.578;2023-08-06T08:06:01;99938.97;;;25.74;46.52
59240;BME280;45010;53.640;10.578;2023-08-06T08:09:02;99944.06;;;25.76;46.51
59240;BME280;45010;53.640;10.578;2023-08-06T08:12:03;99927.47;;;25.74;46.44
59240;BME280;45010;53.640;10.578;2023-08-06T08:15:04;99929.66;;;25.82;46.23
59240;BME280;45010;53.640;10.578;2023-08-06T08:18:04;99932.88;;;25.84;46.35
59240;BME280;45010;53.640;10.578;2023-08-06T08:21:04;99932.38;;;25.87;46.15
59240;BME280;45010;53.640;10.578;2023-08-06T08:24:05;99925.94;;;25.83;46.22
59240;BME280;45010;53.640;10.578;2023-08-06T08:27:05;99928.09;;;25.91;45.99
59240;BME280;45010;53.640;10.578;2023-08-06T08:30:06;99929.19;;;25.96;46.33
59240;BME280;45010;53.640;10.578;2023-08-06T08:33:06;99931.63;;;25.97;46.32
59240;BME280;45010;53.640;10.578;2023-08-06T08:36:07;99915.31;;;25.94;46.06
59240;BME280;45010;53.640;10.578;2023-08-06T08:39:10;99924.41;;;26.03;46.14
59240;BME280;45010;53.640;10.578;2023-08-06T08:42:10;99933.00;;;26.05;46.12
59240;BME280;45010;53.640;10.578;2023-08-06T08:45:14;99930.84;;;26.07;45.82
59240;BME280;45010;53.640;10.578;2023-08-06T08:48:16;99927.09;;;26.03;46.28
59240;BME280;45010;53.640;10.578;2023-08-06T08:51:17;99924.97;;;26.10;46.02
59240;BME280;45010;53.640;10.578;2023-08-06T08:54:18;99921.75;;;26.08;46.21
59240;BME280;45010;53.640;10.578;2023-08-06T08:57:20;99928.72;;;26.14;45.74
59240;BME280;45010;53.640;10.578;2023-08-06T09:00:21;99931.69;;;26.18;46.07
59240;BME280;45010;53.640;10.578;2023-08-06T09:03:21;99923.41;;;26.19;45.77
59240;BME280;45010;53.640;10.578;2023-08-06T09:06:23;99917.56;;;26.23;45.85
59240;BME280;45010;53.640;10.578;2023-08-06T09:09:28;99902.00;;;26.14;45.91
59240;BME280;45010;53.640;10.578;2023-08-06T09:12:30;99910.59;;;26.22;45.72
59240;BME280;45010;53.640;10.578;2023-08-06T09:15:31;99913.88;;;26.29;45.56
59240;BME280;45010;53.640;10.578;2023-08-06T09:18:31;99920.81;;;26.30;45.48
59240;BME280;45010;53.640;10.578;2023-08-06T09:21:32;99921.34;;;26.32;45.65
59240;BME280;45010;53.640;10.578;2023-08-06T09:24:32;99923.75;;;26.34;45.58
59240;BME280;45010;53.640;10.578;2023-08-06T09:27:32;99920.84;;;26.35;45.47
59240;BME280;45010;53.640;10.578;2023-08-06T09:30:35;99923.22;;;26.37;45.63
59240;BME280;45010;53.640;10.578;2023-08-06T09:33:36;99911.47;;;26.32;45.41
59240;BME280;45010;53.640;10.578;2023-08-06T09:36:41;99915.50;;;26.35;45.49
59240;BME280;45010;53.640;10.578;2023-08-06T09:39:42;99921.38;;;26.42;45.29
59240;BME280;45010;53.640;10.578;2023-08-06T09:42:43;99920.31;;;26.43;45.23
59240;BME280;45010;53.640;10.578;2023-08-06T09:45:45;99919.25;;;26.44;45.10
59240;BME280;45010;53.640;10.578;2023-08-06T09:48:46;99926.19;;;26.45;45.26
59240;BME280;45010;53.640;10.578;2023-08-06T09:51:47;99922.44;;;26.46;45.48
59240;BME280;45010;53.640;10.578;2023-08-06T09:54:51;99918.72;;;26.48;45.00
59240;BME280;45010;53.640;10.578;2023-08-06T09:57:52;99911.75;;;26.41;45.57
59240;BME280;45010;53.640;10.578;2023-08-06T10:00:53;99907.75;;;26.44;45.10
59240;BME280;45010;53.640;10.578;2023-08-06T10:03:54;99910.16;;;26.51;45.02
59240;BME280;45010;53.640;10.578;2023-08-06T10:06:54;99908.00;;;26.53;45.11
59240;BME280;45010;53.640;10.578;2023-08-06T10:09:55;99904.31;;;26.54;44.91
59240;BME280;45010;53.640;10.578;2023-08-06T10:12:56;99903.22;;;26.55;44.80
59240;BME280;45010;53.640;10.578;2023-08-06T10:15:58;99896.00;;;26.50;44.70
59240;BME280;45010;53.640;10.578;2023-08-06T10:18:59;99894.94;;;26.51;44.88
59240;BME280;45010;53.640;10.578;2023-08-06T10:22:14;99871.66;;;26.41;44.70
59240;BME280;45010;53.640;10.578;2023-08-06T10:25:18;99895.72;;;26.57;45.13
59240;BME280;45010;53.640;10.578;2023-08-06T10:28:18;99890.38;;;26.57;44.68
59240;BME280;45010;53.640;10.578;2023-08-06T10:31:19;99886.63;;;26.58;44.66
59240;BME280;45010;53.640;10.578;2023-08-06T10:34:19;99882.09;;;26.58;45.05
59240;BME280;45010;53.640;10.578;2023-08-06T10:37:20;99875.66;;;26.54;44.68
59240;BME280;45010;53.640;10.578;2023-08-06T10:40:21;99878.09;;;26.56;44.83
59240;BME280;45010;53.640;10.578;2023-08-06T10:43:26;99874.34;;;26.57;44.80
59240;BME280;45010;53.640;10.578;2023-08-06T10:46:27;99852.94;;;26.46;44.63
59240;BME280;45010;53.640;10.578;2023-08-06T10:49:28;99871.69;;;26.62;44.63
59240;BME280;45010;53.640;10.578;2023-08-06T10:52:28;99873.28;;;26.63;44.90
59240;BME280;45010;53.640;10.578;2023-08-06T10:55:29;99869.53;;;26.64;44.89
59240;BME280;45010;53.640;10.578;2023-08-06T10:58:33;99866.59;;;26.66;44.90
59240;BME280;45010;53.640;10.578;2023-08-06T11:01:33;99860.47;;;26.65;44.42
59240;BME280;45010;53.640;10.578;2023-08-06T11:04:35;99859.09;;;26.68;44.83
59240;BME280;45010;53.640;10.578;2023-08-06T11:07:37;99838.50;;;26.63;44.37
59240;BME280;45010;53.640;10.578;2023-08-06T11:10:37;99845.47;;;26.69;44.41
59240;BME280;45010;53.640;10.578;2023-08-06T11:13:37;99839.03;;;26.70;44.24
59240;BME280;45010;53.640;10.578;2023-08-06T11:16:38;99840.66;;;26.71;44.78
59240;BME280;45010;53.640;10.578;2023-08-06T11:19:41;99832.38;;;26.63;44.55
59240;BME280;45010;53.640;10.578;2023-08-06T11:22:41;99841.19;;;26.73;44.68
59240;BME280;45010;53.640;10.578;2023-08-06T11:25:45;99831.28;;;26.74;44.70
59240;BME280;45010;53.640;10.578;2023-08-06T11:28:46;99835.84;;;26.68;44.83
59240;BME280;45010;53.640;10.578;2023-08-06T11:31:46;99839.88;;;26.76;44.89
59240;BME280;45010;53.640;10.578;2023-08-06T11:34:46;99840.66;;;26.77;44.42
59240;BME280;45010;53.640;10.578;2023-08-06T11:37:47;99837.97;;;26.77;44.47
59240;BME280;45010;53.640;10.578;2023-08-06T11:40:48;99836.94;;;26.78;44.77
59240;BME280;45010;53.640;10.578;2023-08-06T11:43:48;99835.28;;;26.77;44.54
59240;BME280;45010;53.640;10.578;2023-08-06T11:46:53;99815.53;;;26.72;44.96
59240;BME280;45010;53.640;10.578;2023-08-06T11:49:55;99831.56;;;26.78;44.53
59240;BME280;45010;53.640;10.578;2023-08-06T11:52:57;99817.91;;;26.74;44.61
59240;BME280;45010;53.640;10.578;2023-08-06T11:55:58;99818.72;;;26.80;44.54
59240;BME280;45010;53.640;10.578;2023-08-06T11:58:58;99820.31;;;26.81;44.51
59240;BME280;45010;53.640;10.578;2023-08-06T12:02:03;99814.97;;;26.81;44.39
59240;BME280;45010;53.640;10.578;2023-08-06T12:05:19;99819.25;;;26.77;44.61
59240;BME280;45010;53.640;10.578;2023-08-06T12:08:26;99824.59;;;26.82;44.75
59240;BME280;45010;53.640;10.578;2023-08-06T12:11:27;99815.50;;;26.83;44.45
59240;BME280;45010;53.640;10.578;2023-08-06T12:14:27;99827.81;;;26.84;44.70
59240;BME280;45010;53.640;10.578;2023-08-06T12:17:27;99825.16;;;26.84;44.39
59240;BME280;45010;53.640;10.578;2023-08-06T12:20:28;99824.06;;;26.85;44.63
59240;BME280;45010;53.640;10.578;2023-08-06T12:23:28;99813.91;;;26.87;44.51
59240;BME280;45010;53.640;10.578;2023-08-06T12:26:28;99824.59;;;26.87;44.17
59240;BME280;45010;53.640;10.578;2023-08-06T12:29:29;99804.78;;;26.88;44.15
59240;BME280;45010;53.640;10.578;2023-08-06T12:32:30;99812.81;;;26.88;44.63
59240;BME280;45010;53.640;10.578;2023-08-06T12:35:30;99809.06;;;26.89;44.32
59240;BME280;45010;53.640;10.578;2023-08-06T12:38:30;99810.16;;;26.88;44.17
59240;BME280;45010;53.640;10.578;2023-08-06T12:41:33;99800.53;;;26.82;44.52
59240;BME280;45010;53.640;10.578;2023-08-06T12:44:34;99811.75;;;26.89;44.06
59240;BME280;45010;53.640;10.578;2023-08-06T12:47:34;99810.16;;;26.88;44.43
59240;BME280;45010;53.640;10.578;2023-08-06T12:50:35;99807.47;;;26.88;44.64
59240;BME280;45010;53.640;10.578;2023-08-06T12:53:36;99810.97;;;26.89;44.22
59240;BME280;45010;53.640;10.578;2023-08-06T12:56:36;99810.97;;;26.89;44.41
59240;BME280;45010;53.640;10.578;2023-08-06T12:59:36;99810.97;;;26.89;44.61
59240;BME280;45010;53.640;10.578;2023-08-06T13:02:37;99805.34;;;26.85;44.33
59240;BME280;45010;53.640;10.578;2023-08-06T13:05:37;99813.38;;;26.90;44.50
59240;BME280;45010;53.640;10.578;2023-08-06T13:08:37;99807.22;;;26.90;44.48
59240;BME280;45010;53.640;10.578;2023-08-06T13:11:39;99803.75;;;26.84;44.38
59240;BME280;45010;53.640;10.578;2023-08-06T13:14:40;99808.28;;;26.89;44.57
59240;BME280;45010;53.640;10.578;2023-08-06T13:17:40;99802.66;;;26.90;44.34
59240;BME280;45010;53.640;10.578;2023-08-06T13:20:40;99798.94;;;26.91;44.12
59240;BME280;45010;53.640;10.578;2023-08-06T13:23:41;99793.31;;;26.88;44.28
59240;BME280;45010;53.640;10.578;2023-08-06T13:26:41;99799.22;;;26.95;44.44
59240;BME280;45010;53.640;10.578;2023-08-06T13:29:41;99801.88;;;26.95;44.50
59240;BME280;45010;53.640;10.578;2023-08-06T13:32:42;99800.03;;;26.95;44.46
59240;BME280;45010;53.640;10.578;2023-08-06T13:35:42;99800.03;;;26.95;44.72
59240;BME280;45010;53.640;10.578;2023-08-06T13:38:43;99781.53;;;26.83;44.79
59240;BME280;45010;53.640;10.578;2023-08-06T13:41:44;99790.91;;;26.91;44.66
59240;BME280;45010;53.640;10.578;2023-08-06T13:44:44;99789.84;;;26.97;44.26
59240;BME280;45010;53.640;10.578;2023-08-06T13:47:44;99789.84;;;26.97;44.21
59240;BME280;45010;53.640;10.578;2023-08-06T13:50:45;99790.91;;;26.96;44.64
59240;BME280;45010;53.640;10.578;2023-08-06T13:53:45;99765.22;;;26.80;44.76
59240;BME280;45010;53.640;10.578;2023-08-06T13:56:46;99792.53;;;26.97;44.29
59240;BME280;45010;53.640;10.578;2023-08-06T13:59:46;99804.81;;;26.98;44.57
59240;BME280;45010;53.640;10.578;2023-08-06T14:02:46;99804.81;;;26.98;44.25
59240;BME280;45010;53.640;10.578;2023-08-06T14:05:47;99805.63;;;26.99;44.28
59240;BME280;45010;53.640;10.578;2023-08-06T14:08:48;99806.41;;;26.99;44.57
59240;BME280;45010;53.640;10.578;2023-08-06T14:11:48;99806.41;;;26.99;44.46
59240;BME280;45010;53.640;10.578;2023-08-06T14:14:48;99802.97;;;26.99;44.56
59240;BME280;45010;53.640;10.578;2023-08-06T14:17:49;99794.13;;;26.98;44.44
59240;BME280;45010;53.640;10.578;2023-08-06T14:20:49;99795.72;;;26.99;44.42
59240;BME280;45010;53.640;10.578;2023-08-06T14:23:50;99781.25;;;26.90;44.20
59240;BME280;45010;53.640;10.578;2023-08-06T14:26:50;99798.94;;;27.02;43.94
59240;BME280;45010;53.640;10.578;2023-08-06T14:29:51;99797.88;;;27.03;44.40
59240;BME280;45010;53.640;10.578;2023-08-06T14:32:52;99795.97;;;27.03;44.32
59240;BME280;45010;53.640;10.578;2023-08-06T14:35:52;99801.31;;;27.03;44.36
59240;BME280;45010;53.640;10.578;2023-08-06T14:38:52;99797.56;;;27.04;44.39
59240;BME280;45010;53.640;10.578;2023-08-06T14:41:53;99798.38;;;27.05;43.96
59240;BME280;45010;53.640;10.578;2023-08-06T14:44:53;99802.66;;;27.06;44.14
59240;BME280;45010;53.640;10.578;2023-08-06T14:47:53;99799.97;;;27.06;44.33
59240;BME280;45010;53.640;10.578;2023-08-06T14:50:54;99790.38;;;26.99;44.26
59240;BME280;45010;53.640;10.578;2023-08-06T14:53:54;99793.31;;;26.98;44.01
59240;BME280;45010;53.640;10.578;2023-08-06T14:56:55;99799.19;;;27.05;44.14
59240;BME280;45010;53.640;10.578;2023-08-06T14:59:55;99801.88;;;27.05;43.79
59240;BME280;45010;53.640;10.578;2023-08-06T15:02:56;99797.88;;;26.97;43.96
59240;BME280;45010;53.640;10.578;2023-08-06T15:05:56;99799.19;;;27.05;44.25
59240;BME280;45010;53.640;10.578;2023-08-06T15:08:56;99797.03;;;27.07;44.04
59240;BME280;45010;53.640;10.578;2023-08-06T15:12:00;99808.56;;;27.08;43.75
59240;BME280;45010;53.640;10.578;2023-08-06T15:15:01;99804.81;;;27.09;43.83
59240;BME280;45010;53.640;10.578;2023-08-06T15:18:02;99804.00;;;27.08;43.64
59240;BME280;45010;53.640;10.578;2023-08-06T15:21:02;99804.81;;;27.09;44.08
59240;BME280;45010;53.640;10.578;2023-08-06T15:24:02;99809.59;;;27.12;44.12
59240;BME280;45010;53.640;10.578;2023-08-06T15:27:03;99814.97;;;27.12;43.61
59240;BME280;45010;53.640;10.578;2023-08-06T15:30:04;99806.94;;;27.12;43.73
59240;BME280;45010;53.640;10.578;2023-08-06T15:33:04;99810.41;;;27.12;44.06
59240;BME280;45010;53.640;10.578;2023-08-06T15:36:05;99796.22;;;27.07;44.08
59240;BME280;45010;53.640;10.578;2023-08-06T15:39:05;99805.84;;;27.13;44.15
59240;BME280;45010;53.640;10.578;2023-08-06T15:42:06;99799.47;;;27.09;44.33
59240;BME280;45010;53.640;10.578;2023-08-06T15:45:06;99811.75;;;27.15;43.70
59240;BME280;45010;53.640;10.578;2023-08-06T15:48:07;99780.22;;;26.96;43.70
59240;BME280;45010;53.640;10.578;2023-08-06T15:51:09;99810.69;;;27.16;44.11
59240;BME280;45010;53.640;10.578;2023-08-06T15:54:09;99808.00;;;27.16;43.84